createdAt,value
2022-08-17T00:02:25.887Z,9.43
2022-08-17T00:04:55.348Z,9.75
2022-08-17T00:07:23.595Z,9.32
2022-08-17T00:09:51.040Z,10.20
2022-08-17T00:12:43.339Z,9.38
2022-08-17T00:15:13.071Z,9.07
2022-08-17T00:17:46.316Z,8.40
2022-08-17T00:20:14.421Z,8.02
2022-08-17T00:22:43.550Z,8.48
2022-08-17T00:25:16.797Z,8.18
2022-08-17T00:27:46.980Z,8.50
2022-08-17T00:30:14.970Z,8.13
2022-08-17T00:33:11.932Z,8.20
2022-08-17T00:35:35.067Z,8.52
2022-08-17T00:38:10.006Z,8.23
2022-08-17T00:40:44.942Z,8.77
2022-08-17T00:43:20.468Z,8.30
2022-08-17T00:45:53.013Z,8.05
2022-08-17T00:48:30.146Z,8.65
2022-08-17T00:51:11.895Z,8.70
2022-08-17T00:53:44.513Z,8.43
2022-08-17T00:56:21.230Z,9.52
2022-08-17T00:58:54.629Z,9.48
2022-08-17T01:01:23.816Z,9.60
2022-08-17T01:03:57.044Z,9.05
2022-08-17T01:06:28.436Z,9.90
2022-08-17T01:08:58.010Z,11.05
2022-08-17T01:11:28.842Z,9.63
2022-08-17T01:13:56.284Z,10.65
2022-08-17T01:16:30.613Z,10.63
2022-08-17T01:19:04.949Z,9.90
2022-08-17T01:22:08.519Z,11.07
2022-08-17T01:24:37.381Z,9.93
2022-08-17T01:27:10.718Z,11.20
2022-08-17T01:29:41.169Z,10.50
2022-08-17T01:32:09.132Z,11.30
2022-08-17T01:34:43.679Z,10.23
2022-08-17T01:37:19.052Z,10.00
2022-08-17T01:39:52.482Z,10.27
2022-08-17T01:42:38.705Z,10.05
2022-08-17T01:45:17.769Z,10.70
2022-08-17T01:47:50.791Z,10.80
2022-08-17T01:50:22.805Z,11.05
2022-08-17T01:52:54.384Z,10.25
2022-08-17T01:55:27.515Z,10.05
2022-08-17T01:57:55.362Z,10.98
2022-08-17T02:00:22.978Z,11.18
2022-08-17T02:02:51.456Z,10.23
2022-08-17T02:05:22.550Z,10.25
2022-08-17T02:07:59.675Z,11.13
2022-08-17T02:10:34.180Z,11.63
2022-08-17T02:13:03.935Z,11.13
2022-08-17T02:15:32.277Z,11.55
2022-08-17T02:18:05.759Z,11.18
2022-08-17T02:20:42.206Z,10.73
2022-08-17T02:23:12.985Z,11.25
2022-08-17T02:25:43.521Z,10.02
2022-08-17T02:28:11.506Z,9.87
2022-08-17T02:31:01.256Z,10.38
2022-08-17T02:33:42.847Z,10.93
2022-08-17T02:36:18.989Z,9.32
2022-08-17T02:38:50.014Z,9.93
2022-08-17T02:41:17.392Z,11.70
2022-08-17T02:43:45.533Z,11.70
2022-08-17T02:46:13.017Z,10.93
2022-08-17T02:48:42.447Z,13.05
2022-08-17T02:51:09.845Z,11.73
2022-08-17T02:53:37.145Z,12.18
2022-08-17T02:56:09.718Z,10.73
2022-08-17T02:58:40.700Z,11.30
2022-08-17T03:01:13.773Z,11.90
2022-08-17T03:03:45.505Z,11.82
2022-08-17T03:06:12.797Z,13.93
2022-08-17T03:08:43.452Z,13.40
2022-08-17T03:11:10.849Z,21.77
2022-08-17T03:13:38.184Z,18.58
2022-08-17T03:16:14.581Z,20.05
2022-08-17T03:18:44.502Z,13.68
2022-08-17T03:21:11.994Z,15.65
2022-08-17T03:23:41.317Z,15.48
2022-08-17T03:26:15.402Z,17.10
2022-08-17T03:28:43.801Z,19.13
2022-08-17T03:31:14.850Z,16.55
2022-08-17T03:33:42.715Z,17.40
2022-08-17T03:36:10.517Z,19.17
2022-08-17T03:38:41.200Z,18.27
2022-08-17T03:41:11.830Z,20.05
2022-08-17T03:43:42.302Z,16.47
2022-08-17T03:46:35.138Z,16.77
2022-08-17T03:49:25.638Z,21.30
2022-08-17T03:52:13.375Z,21.02
2022-08-17T03:55:01.326Z,19.33
2022-08-17T03:57:29.668Z,18.30
2022-08-17T03:59:57.196Z,18.13
2022-08-17T04:02:32.198Z,18.65
2022-08-17T04:05:02.809Z,18.25
2022-08-17T04:07:31.935Z,18.23
2022-08-17T04:10:00.540Z,19.77
2022-08-17T04:12:32.125Z,18.63
2022-08-17T04:15:09.754Z,20.98
2022-08-17T04:17:41.118Z,20.23
2022-08-17T04:22:36.933Z,23.80
2022-08-17T04:25:17.413Z,24.75
2022-08-17T04:27:48.960Z,23.27
2022-08-17T04:30:16.452Z,24.05
2022-08-17T04:33:05.965Z,23.60
2022-08-17T04:35:52.554Z,24.17
2022-08-17T04:38:22.626Z,22.60
2022-08-17T04:41:12.355Z,23.85
2022-08-17T04:43:41.777Z,23.63
2022-08-17T04:46:19.096Z,22.10
2022-08-17T04:48:49.499Z,20.38
2022-08-17T04:51:32.613Z,20.40
2022-08-17T04:54:06.274Z,19.75
2022-08-17T04:56:34.664Z,19.60
2022-08-17T04:59:05.226Z,20.17
2022-08-17T05:01:34.674Z,18.70
2022-08-17T05:04:20.875Z,19.05
2022-08-17T05:06:55.504Z,18.80
2022-08-17T05:09:28.806Z,17.98
2022-08-17T05:12:02.205Z,17.02
2022-08-17T05:14:33.062Z,16.95
2022-08-17T05:17:04.144Z,15.82
2022-08-17T05:19:40.129Z,15.45
2022-08-17T05:22:07.495Z,14.95
2022-08-17T05:24:42.716Z,14.35
2022-08-17T05:27:21.592Z,13.23
2022-08-17T05:29:57.327Z,13.57
2022-08-17T05:32:38.185Z,12.48
2022-08-17T05:35:09.653Z,13.32
2022-08-17T05:37:36.956Z,13.55
2022-08-17T05:40:04.849Z,11.93
2022-08-17T05:42:37.035Z,11.60
2022-08-17T05:45:05.298Z,13.02
2022-08-17T05:47:32.525Z,11.48
2022-08-17T05:50:01.450Z,12.00
2022-08-17T05:52:35.071Z,11.93
2022-08-17T05:55:21.174Z,11.38
2022-08-17T05:58:09.917Z,12.57
2022-08-17T06:01:07.847Z,13.45
2022-08-17T06:03:56.764Z,12.13
2022-08-17T06:06:32.270Z,12.48
2022-08-17T06:09:25.753Z,11.55
2022-08-17T06:12:23.498Z,10.82
2022-08-17T06:15:02.966Z,11.00
2022-08-17T06:17:31.415Z,9.73
2022-08-17T06:20:04.402Z,9.32
2022-08-17T06:22:43.059Z,9.07
2022-08-17T06:25:18.991Z,8.98
2022-08-17T06:27:59.452Z,8.90
2022-08-17T06:30:59.610Z,8.02
2022-08-17T06:33:29.804Z,8.25
2022-08-17T06:36:25.536Z,7.80
2022-08-17T06:39:33.069Z,8.23
2022-08-17T06:43:04.105Z,8.90
2022-08-17T06:45:59.139Z,8.63
2022-08-17T06:48:41.090Z,7.57
2022-08-17T06:51:23.672Z,8.60
2022-08-17T06:54:20.309Z,7.15
2022-08-17T06:57:25.453Z,8.32
2022-08-17T07:00:05.146Z,8.23
2022-08-17T07:02:55.776Z,7.75
2022-08-17T07:05:51.861Z,8.00
2022-08-17T07:08:40.206Z,8.88
2022-08-17T07:11:18.859Z,8.23
2022-08-17T07:13:54.498Z,7.95
2022-08-17T07:16:46.576Z,8.15
2022-08-17T07:19:17.363Z,8.63
2022-08-17T07:22:20.289Z,8.63
2022-08-17T07:25:09.436Z,8.68
2022-08-17T07:27:45.596Z,8.18
2022-08-17T07:30:26.347Z,8.23
2022-08-17T07:32:58.500Z,7.30
2022-08-17T07:35:58.293Z,7.88
2022-08-17T07:38:34.142Z,7.63
2022-08-17T07:41:03.141Z,7.88
2022-08-17T07:43:33.738Z,8.10
2022-08-17T07:46:37.109Z,7.45
2022-08-17T07:49:08.776Z,7.35
2022-08-17T07:51:50.850Z,7.80
2022-08-17T07:54:28.203Z,7.22
2022-08-17T07:57:08.908Z,8.40
2022-08-17T07:59:38.982Z,7.38
2022-08-17T08:02:17.761Z,7.22
2022-08-17T08:05:30.696Z,6.82
2022-08-17T08:08:29.200Z,7.65
2022-08-17T08:11:10.001Z,7.22
2022-08-17T08:13:45.259Z,7.38
2022-08-17T08:16:27.592Z,8.05
2022-08-17T08:19:02.168Z,7.63
2022-08-17T08:21:48.522Z,7.70
2022-08-17T08:24:36.861Z,7.20
2022-08-17T08:27:48.972Z,7.10
2022-08-17T08:30:21.671Z,7.65
2022-08-17T08:33:38.676Z,8.32
2022-08-17T08:37:15.892Z,7.75
2022-08-17T08:39:26.193Z,7.88
2022-08-17T08:42:08.713Z,8.25
2022-08-17T08:45:10.361Z,8.25
2022-08-17T08:50:54.633Z,8.02
2022-08-17T08:53:44.748Z,7.65
2022-08-17T08:56:36.813Z,7.05
2022-08-17T08:59:23.683Z,7.30
2022-08-17T09:02:25.611Z,8.77
2022-08-17T09:05:18.066Z,8.05
2022-08-17T09:08:03.194Z,7.93
2022-08-17T09:10:52.160Z,7.60
2022-08-17T09:13:55.504Z,7.07
2022-08-17T09:16:41.698Z,7.43
2022-08-17T09:19:23.598Z,6.90
2022-08-17T09:22:17.590Z,6.90
2022-08-17T09:25:05.312Z,6.80
2022-08-17T09:27:46.607Z,6.43
2022-08-17T09:32:50.308Z,5.93
2022-08-17T09:35:25.279Z,6.57
2022-08-17T09:38:32.323Z,6.50
2022-08-17T09:41:28.370Z,6.50
2022-08-17T09:44:22.943Z,5.72
2022-08-17T09:47:34.537Z,5.90
2022-08-17T09:50:13.586Z,5.85
2022-08-17T09:52:43.343Z,5.95
2022-08-17T09:55:13.891Z,6.10
2022-08-17T09:58:28.986Z,6.03
2022-08-17T10:01:40.120Z,5.28
2022-08-17T10:04:32.448Z,5.35
2022-08-17T10:07:10.714Z,6.45
2022-08-17T10:09:49.113Z,6.65
2022-08-17T10:12:30.444Z,5.63
2022-08-17T10:15:22.874Z,5.93
2022-08-17T10:18:07.656Z,5.57
2022-08-17T10:20:45.525Z,5.97
2022-08-17T10:23:37.254Z,5.57
2022-08-17T10:26:13.499Z,5.43
2022-08-17T10:28:44.558Z,5.88
2022-08-17T10:31:36.227Z,5.40
2022-08-17T10:34:22.432Z,6.57
2022-08-17T10:36:56.440Z,5.53
2022-08-17T10:39:30.869Z,5.72
2022-08-17T10:42:01.458Z,5.55
2022-08-17T10:44:48.140Z,5.43
2022-08-17T10:47:19.215Z,5.90
2022-08-17T10:49:54.174Z,6.07
2022-08-17T10:52:26.510Z,6.82
2022-08-17T10:54:58.712Z,6.05
2022-08-17T10:57:32.649Z,5.55
2022-08-17T11:00:08.889Z,5.78
2022-08-17T11:02:42.512Z,5.72
2022-08-17T11:05:27.711Z,5.80
2022-08-17T11:08:43.558Z,5.82
2022-08-17T11:11:51.117Z,6.05
2022-08-17T11:14:55.650Z,6.22
2022-08-17T11:17:41.780Z,6.72
2022-08-17T11:20:32.805Z,5.68
2022-08-17T11:23:42.314Z,6.10
2022-08-17T11:26:41.111Z,5.90
2022-08-17T11:29:24.927Z,5.60
2022-08-17T11:32:15.130Z,5.75
2022-08-17T11:34:44.901Z,6.13
2022-08-17T11:37:32.867Z,6.00
2022-08-17T11:40:19.353Z,5.72
2022-08-17T11:43:01.150Z,5.20
2022-08-17T11:45:38.031Z,5.28
2022-08-17T11:48:34.857Z,5.25
2022-08-17T11:51:29.988Z,5.82
2022-08-17T11:54:21.475Z,5.32
2022-08-17T11:56:50.095Z,5.60
2022-08-17T11:59:33.003Z,6.20
2022-08-17T12:02:06.459Z,6.00
2022-08-17T12:04:35.769Z,5.32
2022-08-17T12:07:14.117Z,6.20
2022-08-17T12:09:45.113Z,5.90
2022-08-17T12:12:16.379Z,5.68
2022-08-17T12:17:40.863Z,6.30
2022-08-17T12:20:21.981Z,7.03
2022-08-17T12:23:20.673Z,6.68
2022-08-17T12:26:14.418Z,5.75
2022-08-17T12:28:47.587Z,6.18
2022-08-17T12:31:31.186Z,5.88
2022-08-17T12:34:00.576Z,6.10
2022-08-17T12:36:29.049Z,6.50
2022-08-17T12:39:12.235Z,6.32
2022-08-17T12:41:52.473Z,6.20
2022-08-17T12:44:32.758Z,7.07
2022-08-17T12:47:07.166Z,6.03
2022-08-17T12:49:37.212Z,6.13
2022-08-17T12:52:26.894Z,6.05
2022-08-17T12:55:07.442Z,5.90
2022-08-17T12:57:47.390Z,5.68
2022-08-17T13:00:25.590Z,5.80
2022-08-17T13:02:59.252Z,6.10
2022-08-17T13:05:28.273Z,6.57
2022-08-17T13:07:57.992Z,5.90
2022-08-17T13:10:33.390Z,5.88
2022-08-17T13:13:06.143Z,6.10
2022-08-17T13:15:44.719Z,6.30
2022-08-17T13:18:31.306Z,6.20
2022-08-17T13:21:04.083Z,6.00
2022-08-17T13:23:32.396Z,6.25
2022-08-17T13:26:07.970Z,6.25
2022-08-17T13:28:36.890Z,6.63
2022-08-17T13:31:28.587Z,5.78
2022-08-17T13:34:16.104Z,5.85
2022-08-17T13:36:46.995Z,6.53
2022-08-17T13:39:25.279Z,5.95
2022-08-17T13:41:56.354Z,5.97
2022-08-17T13:44:39.780Z,5.75
2022-08-17T13:47:18.124Z,6.18
2022-08-17T13:49:49.090Z,5.78
2022-08-17T13:55:19.831Z,5.78
2022-08-17T13:58:06.821Z,6.32
2022-08-17T14:00:36.607Z,6.38
2022-08-17T14:03:05.476Z,6.30
2022-08-17T14:05:34.022Z,5.60
2022-08-17T14:08:06.805Z,5.80
2022-08-17T14:10:36.735Z,5.90
2022-08-17T14:13:09.350Z,5.47
2022-08-17T14:15:55.024Z,5.55
2022-08-17T14:18:31.152Z,5.57
2022-08-17T14:21:12.069Z,5.55
2022-08-17T14:23:39.584Z,5.55
2022-08-17T14:26:06.933Z,5.18
2022-08-17T14:28:36.526Z,5.78
2022-08-17T14:31:05.383Z,5.57
2022-08-17T14:33:33.870Z,6.32
2022-08-17T14:36:01.373Z,5.85
2022-08-17T14:38:29.016Z,6.40
2022-08-17T14:41:00.422Z,5.82
2022-08-17T14:43:27.731Z,6.90
2022-08-17T14:46:00.174Z,6.50
2022-08-17T14:48:29.104Z,6.13
2022-08-17T14:50:59.784Z,6.43
2022-08-17T14:53:27.277Z,6.00
2022-08-17T14:55:55.592Z,6.20
2022-08-17T14:58:23.891Z,5.90
2022-08-17T15:00:52.686Z,6.35
2022-08-17T15:03:23.854Z,6.07
2022-08-17T15:05:54.166Z,6.18
2022-08-17T15:08:21.613Z,6.37
2022-08-17T15:10:54.538Z,6.00
2022-08-17T15:13:26.007Z,6.03
2022-08-17T15:15:54.008Z,6.05
2022-08-17T15:18:21.607Z,5.78
2022-08-17T15:20:53.298Z,6.13
2022-08-17T15:23:26.670Z,5.72
2022-08-17T15:25:55.086Z,6.35
2022-08-17T15:28:23.161Z,6.28
2022-08-17T15:30:55.134Z,6.20
2022-08-17T15:33:30.405Z,5.70
2022-08-17T15:36:03.784Z,6.57
2022-08-17T15:38:34.426Z,6.10
2022-08-17T15:41:07.531Z,6.70
2022-08-17T15:43:36.107Z,6.38
2022-08-17T15:46:15.222Z,6.53
2022-08-17T15:48:51.214Z,6.55
2022-08-17T15:51:26.101Z,5.97
2022-08-17T15:54:04.481Z,6.90
2022-08-17T15:56:50.232Z,6.28
2022-08-17T15:59:24.913Z,6.07
2022-08-17T16:02:29.914Z,6.65
2022-08-17T16:04:44.510Z,6.70
2022-08-17T16:07:17.506Z,6.30
2022-08-17T16:09:45.708Z,6.30
2022-08-17T16:12:19.216Z,5.90
2022-08-17T16:14:49.200Z,6.45
2022-08-17T16:17:39.777Z,6.50
2022-08-17T16:20:06.939Z,6.65
2022-08-17T16:22:41.579Z,6.13
2022-08-17T16:25:12.743Z,6.72
2022-08-17T16:27:43.910Z,6.15
2022-08-17T16:32:51.881Z,6.22
2022-08-17T16:35:22.864Z,7.00
2022-08-17T16:37:57.352Z,6.68
2022-08-17T16:40:27.598Z,6.35
2022-08-17T16:42:55.939Z,6.00
2022-08-17T16:45:28.328Z,6.40
2022-08-17T16:47:59.250Z,7.25
2022-08-17T16:50:30.456Z,6.28
2022-08-17T16:53:10.911Z,6.70
2022-08-17T16:55:43.004Z,6.60
2022-08-17T16:58:10.418Z,6.47
2022-08-17T17:00:38.610Z,6.55
2022-08-17T17:03:19.955Z,6.75
2022-08-17T17:06:13.831Z,7.03
2022-08-17T17:08:55.636Z,6.35
2022-08-17T17:11:35.557Z,6.40
2022-08-17T17:14:07.365Z,6.05
2022-08-17T17:16:45.745Z,6.95
2022-08-17T17:19:52.914Z,6.53
2022-08-17T17:22:23.542Z,7.13
2022-08-17T17:25:12.084Z,5.65
2022-08-17T17:27:59.008Z,6.28
2022-08-17T17:30:39.077Z,6.70
2022-08-17T17:33:11.694Z,6.40
2022-08-17T17:35:51.916Z,7.13
2022-08-17T17:38:28.982Z,6.47
2022-08-17T17:41:08.794Z,6.07
2022-08-17T17:43:41.647Z,6.50
2022-08-17T17:46:27.386Z,5.95
2022-08-17T17:48:57.750Z,6.65
2022-08-17T17:52:06.525Z,6.03
2022-08-17T17:54:58.255Z,7.10
2022-08-17T17:57:44.313Z,6.53
2022-08-17T18:00:22.321Z,6.55
2022-08-17T18:03:01.626Z,6.32
2022-08-17T18:05:39.032Z,6.72
2022-08-17T18:08:40.545Z,7.13
2022-08-17T18:11:24.953Z,6.80
2022-08-17T18:14:17.464Z,6.93
2022-08-17T18:16:58.428Z,7.05
2022-08-17T18:19:32.545Z,7.57
2022-08-17T18:22:14.109Z,6.68
2022-08-17T18:24:48.014Z,6.28
2022-08-17T18:27:37.934Z,6.70
2022-08-17T18:30:30.053Z,6.63
2022-08-17T18:33:26.699Z,7.68
2022-08-17T18:36:01.688Z,6.65
2022-08-17T18:38:48.031Z,7.43
2022-08-17T18:41:30.637Z,7.50
2022-08-17T18:44:19.539Z,7.28
2022-08-17T18:47:13.938Z,7.35
2022-08-17T18:49:43.379Z,7.07
2022-08-17T18:52:28.620Z,7.43
2022-08-17T18:55:05.118Z,6.93
2022-08-17T18:57:43.591Z,6.80
2022-08-17T19:00:26.942Z,7.25
2022-08-17T19:03:01.324Z,7.25
2022-08-17T19:05:41.241Z,7.00
2022-08-17T19:08:30.071Z,7.15
2022-08-17T19:11:31.998Z,7.20
2022-08-17T19:14:17.066Z,7.72
2022-08-17T19:17:06.375Z,7.78
2022-08-17T19:19:53.611Z,7.38
2022-08-17T19:22:42.260Z,7.40
2022-08-17T19:25:21.835Z,7.63
2022-08-17T19:27:57.702Z,7.63
2022-08-17T19:30:35.859Z,8.23
2022-08-17T19:33:08.929Z,7.97
2022-08-17T19:35:59.569Z,8.20
2022-08-17T19:38:53.606Z,8.57
2022-08-17T19:41:33.307Z,8.13
2022-08-17T19:44:27.344Z,7.70
2022-08-17T19:47:30.726Z,7.80
2022-08-17T19:50:21.392Z,8.43
2022-08-17T19:53:07.609Z,7.43
2022-08-17T19:56:20.311Z,7.70
2022-08-17T19:59:08.379Z,8.45
2022-08-17T20:01:44.566Z,8.40
2022-08-17T20:04:43.742Z,8.32
2022-08-17T20:07:45.072Z,8.23
2022-08-17T20:10:30.749Z,7.75
2022-08-17T20:13:05.525Z,7.78
2022-08-17T20:15:39.136Z,8.25
2022-08-17T20:18:44.077Z,8.10
2022-08-17T20:21:29.382Z,8.90
2022-08-17T20:24:18.195Z,8.52
2022-08-17T20:27:13.948Z,8.93
2022-08-17T20:30:04.378Z,8.15
2022-08-17T20:32:56.432Z,9.00
2022-08-17T20:35:34.233Z,8.30
2022-08-17T20:38:43.411Z,7.78
2022-08-17T20:41:22.474Z,9.13
2022-08-17T20:43:59.459Z,9.07
2022-08-17T20:47:13.217Z,8.43
2022-08-17T20:49:45.145Z,9.13
2022-08-17T20:52:42.629Z,10.27
2022-08-17T20:55:52.294Z,9.00
2022-08-17T20:58:32.258Z,10.13
2022-08-17T21:01:26.459Z,10.15
2022-08-17T21:04:03.410Z,10.98
2022-08-17T21:06:34.157Z,10.20
2022-08-17T21:09:13.584Z,10.32
2022-08-17T21:12:03.924Z,11.20
2022-08-17T21:14:51.167Z,11.23
2022-08-17T21:17:56.617Z,10.93
2022-08-17T21:21:17.275Z,11.70
2022-08-17T21:24:29.193Z,13.10
2022-08-17T21:27:18.201Z,10.70
2022-08-17T21:30:21.124Z,9.77
2022-08-17T21:33:14.605Z,9.27
2022-08-17T21:36:12.887Z,9.75
2022-08-17T21:38:58.574Z,9.50
2022-08-17T21:41:35.015Z,10.23
2022-08-17T21:44:33.150Z,10.13
2022-08-17T21:47:26.376Z,9.55
2022-08-17T21:49:55.186Z,9.25
2022-08-17T21:52:34.270Z,8.65
2022-08-17T21:55:03.338Z,9.75
2022-08-17T21:57:38.625Z,10.00
2022-08-17T22:00:17.142Z,9.45
2022-08-17T22:03:01.337Z,9.18
2022-08-17T22:05:40.522Z,10.27
2022-08-17T22:08:22.053Z,10.93
2022-08-17T22:13:29.679Z,11.18
2022-08-17T22:16:15.533Z,11.02
2022-08-17T22:19:07.622Z,11.50
2022-08-17T22:21:39.220Z,10.10
2022-08-17T22:24:24.903Z,10.93
2022-08-17T22:27:13.133Z,10.23
2022-08-17T22:30:33.423Z,10.50
2022-08-17T22:33:33.489Z,9.93
2022-08-17T22:36:25.593Z,10.98
2022-08-17T22:39:28.482Z,10.88
2022-08-17T22:42:02.592Z,9.60
2022-08-17T22:44:48.203Z,10.10
2022-08-17T22:47:22.903Z,10.43
2022-08-17T22:49:58.006Z,10.75
2022-08-17T22:53:01.910Z,10.48
2022-08-17T22:55:52.234Z,9.77
2022-08-17T22:58:42.778Z,10.35
2022-08-17T23:01:35.813Z,8.82
2022-08-17T23:04:12.678Z,10.07
2022-08-17T23:06:44.098Z,10.20
2022-08-17T23:11:53.650Z,10.27
2022-08-17T23:14:32.583Z,11.32
2022-08-17T23:17:03.475Z,10.82
2022-08-17T23:19:38.027Z,11.18
2022-08-17T23:22:10.607Z,11.23
2022-08-17T23:24:48.726Z,11.02
2022-08-17T23:27:20.704Z,10.68
2022-08-17T23:29:50.730Z,11.63
2022-08-17T23:32:34.607Z,11.02
2022-08-17T23:35:07.184Z,9.98
2022-08-17T23:37:41.983Z,9.35
2022-08-17T23:40:15.092Z,10.35
2022-08-17T23:42:46.703Z,10.50
2022-08-17T23:45:22.641Z,10.07
2022-08-17T23:47:52.998Z,9.95
2022-08-17T23:50:25.455Z,10.70
2022-08-17T23:53:05.738Z,10.10
2022-08-17T23:55:37.561Z,10.43
2022-08-17T23:58:05.632Z,11.00
